Time;durP1;ratioP1;P1;durP2;ratioP2;P2;SDS_P1;SDS_P2;PMS_P1;PMS_P2;Temp;Humidity;BMP_temperature;BMP_pressure;BME280_temperature;BME280_humidity;BME280_pressure;Samples;Min_cycle;Max_cycle;Signal;HPM_P1;HPM_P2
2024/01/21 00:00:09;;;;;;;27.70;19.00;;;;;;;1.39;100.00;101789.83;108572;1285;23766;-81
2024/01/21 00:03:01;;;;;;;28.50;18.50;;;;;;;1.36;100.00;101791.66;108438;1289;22429;-80
2024/01/21 00:05:33;;;;;;;24.40;18.40;;;;;;;1.35;100.00;101791.97;108419;1289;22017;-80
2024/01/21 00:08:04;;;;;;;23.20;16.30;;;;;;;1.32;100.00;101787.77;108405;1286;22641;-81
2024/01/21 00:10:33;;;;;;;22.60;17.20;;;;;;;1.33;100.00;101786.27;108431;1279;22000;-79
2024/01/21 00:13:05;;;;;;;27.30;17.80;;;;;;;1.36;100.00;101790.10;108715;1285;23644;-80
2024/01/21 00:15:40;;;;;;;31.10;19.00;;;;;;;1.35;100.00;101794.56;108503;1276;22005;-80
2024/01/21 00:18:09;;;;;;;29.10;18.80;;;;;;;1.37;100.00;101796.30;108419;1286;21998;-80
2024/01/21 00:20:39;;;;;;;24.20;18.20;;;;;;;1.38;100.00;101794.80;108209;1286;22729;-80
2024/01/21 00:23:08;;;;;;;25.80;17.20;;;;;;;1.40;100.00;101796.71;108530;1286;21961;-80
2024/01/21 00:25:43;;;;;;;28.70;18.20;;;;;;;1.41;100.00;101801.02;108179;1291;22088;-81
2024/01/21 00:28:14;;;;;;;30.70;19.30;;;;;;;1.39;100.00;101806.98;108160;1289;21747;-81
2024/01/21 00:30:45;;;;;;;25.50;17.80;;;;;;;1.37;100.00;101807.46;107870;1294;23763;-81
2024/01/21 00:33:20;;;;;;;22.60;16.40;;;;;;;1.37;100.00;101807.30;107844;1294;23054;-80
2024/01/21 00:35:55;;;;;;;22.60;15.80;;;;;;;1.36;100.00;101808.13;107845;1291;22023;-81
2024/01/21 00:38:27;;;;;;;25.40;17.00;;;;;;;1.36;100.00;101808.96;107532;1297;22025;-81
2024/01/21 00:41:02;;;;;;;23.00;17.10;;;;;;;1.36;100.00;101812.59;107288;1297;22014;-80
2024/01/21 00:43:35;;;;;;;23.00;18.00;;;;;;;1.37;100.00;101813.98;107672;1293;22014;-83
2024/01/21 00:46:09;;;;;;;25.00;16.90;;;;;;;1.41;100.00;101818.17;108000;1293;22012;-81
2024/01/21 00:48:39;;;;;;;23.20;17.60;;;;;;;1.44;100.00;101820.48;107883;1289;22017;-82
2024/01/21 00:51:13;;;;;;;24.10;17.90;;;;;;;1.44;100.00;101819.10;108369;1288;23749;-82
2024/01/21 00:53:44;;;;;;;25.90;19.10;;;;;;;1.47;100.00;101822.09;108037;1292;23739;-81
2024/01/21 00:56:14;;;;;;;38.30;18.10;;;;;;;1.50;100.00;101825.77;108210;1287;23686;-80
2024/01/21 00:58:44;;;;;;;26.50;18.80;;;;;;;1.48;100.00;101827.96;108422;1287;22012;-80
2024/01/21 01:01:13;;;;;;;23.50;18.20;;;;;;;1.47;100.00;101830.33;108540;1287;21994;-79
2024/01/21 01:03:45;;;;;;;28.90;19.90;;;;;;;1.48;100.00;101828.30;108509;1287;22049;-79
2024/01/21 01:06:22;;;;;;;26.90;17.90;;;;;;;1.47;100.00;101828.61;108527;1286;22227;-80
2024/01/21 01:08:55;;;;;;;26.30;19.80;;;;;;;1.47;100.00;101829.45;108412;1290;22017;-80
2024/01/21 01:11:27;;;;;;;30.40;19.10;;;;;;;1.46;100.00;101832.38;108470;1285;21999;-81
2024/01/21 01:13:57;;;;;;;23.20;16.60;;;;;;;1.46;100.00;101836.15;108664;1285;24353;-79
2024/01/21 01:16:29;;;;;;;29.40;19.50;;;;;;;1.48;100.00;101838.24;108169;1290;22015;-80
2024/01/21 01:19:01;;;;;;;23.70;17.50;;;;;;;1.49;100.00;101843.77;108176;1290;22002;-80
2024/01/21 01:21:35;;;;;;;25.70;18.00;;;;;;;1.51;100.00;101849.13;108153;1289;22049;-80
2024/01/21 01:24:07;;;;;;;26.70;18.90;;;;;;;1.53;100.00;101844.88;108349;1290;23618;-79
2024/01/21 01:26:43;;;;;;;22.40;16.60;;;;;;;1.54;100.00;101846.98;108425;1287;22047;-78
2024/01/21 01:29:13;;;;;;;24.90;17.00;;;;;;;1.57;100.00;101852.54;108313;1291;22992;-80
2024/01/21 01:31:44;;;;;;;21.60;15.60;;;;;;;1.57;100.00;101854.91;108410;1289;22186;-79
2024/01/21 01:34:14;;;;;;;25.80;17.80;;;;;;;1.55;100.00;101854.20;108344;1291;22014;-79
2024/01/21 01:36:43;;;;;;;26.40;18.30;;;;;;;1.55;100.00;101854.70;108055;1291;22047;-80
2024/01/21 01:39:16;;;;;;;21.20;16.70;;;;;;;1.53;100.00;101858.08;107738;1294;22926;-79
2024/01/21 01:41:45;;;;;;;;;;;;;;;1.51;100.00;101857.54;107801;1293;22068;-79
2024/01/21 01:44:17;;;;;;;25.60;18.10;;;;;;;1.42;100.00;101857.15;107584;1291;23061;-79
2024/01/21 01:46:46;;;;;;;29.90;20.80;;;;;;;1.42;100.00;101856.30;107320;1298;22138;-79
2024/01/21 01:49:16;;;;;;;33.20;27.20;;;;;;;1.44;100.00;101853.09;107423;1300;22015;-77
2024/01/21 01:51:48;;;;;;;;;;;;;;;1.47;100.00;101851.60;107013;1300;23178;-79
2024/01/21 01:54:25;;;;;;;27.90;24.90;;;;;;;1.48;100.00;101849.23;107019;1300;22023;-79
2024/01/21 01:56:54;;;;;;;22.70;19.30;;;;;;;1.49;100.00;101848.56;107070;1298;23737;-81
2024/01/21 01:59:32;;;;;;;29.20;20.30;;;;;;;1.50;100.00;101849.27;107664;1294;22019;-80
2024/01/21 02:02:01;;;;;;;25.20;20.50;;;;;;;1.40;100.00;101827.09;107561;1299;23032;-79
2024/01/21 02:04:34;;;;;;;24.60;20.50;;;;;;;1.40;100.00;101828.62;107540;1296;22057;-81
2024/01/21 02:07:04;;;;;;;25.70;20.30;;;;;;;1.52;100.00;101852.05;107448;1297;23833;-80
2024/01/21 02:09:33;;;;;;;30.00;20.80;;;;;;;1.53;100.00;101854.13;107656;1294;23673;-81
2024/01/21 02:12:04;;;;;;;26.60;20.30;;;;;;;1.50;100.00;101857.00;107838;1294;22008;-81
2024/01/21 02:14:34;;;;;;;27.20;19.30;;;;;;;1.50;100.00;101855.96;107890;1295;22019;-80
2024/01/21 02:17:04;;;;;;;28.40;19.60;;;;;;;1.51;100.00;101854.61;107887;1294;22028;-81
2024/01/21 02:19:36;;;;;;;26.80;20.10;;;;;;;1.50;100.00;101860.77;107896;1295;22047;-81
2024/01/21 02:22:08;;;;;;;29.40;19.10;;;;;;;1.49;100.00;101864.85;107905;1293;22494;-82
2024/01/21 02:24:44;;;;;;;28.00;20.50;;;;;;;1.50;100.00;101865.40;107918;1289;22015;-82
2024/01/21 02:27:21;;;;;;;28.00;21.40;;;;;;;1.49;100.00;101869.34;108618;1282;22000;-81
2024/01/21 02:29:51;;;;;;;28.00;21.30;;;;;;;1.49;100.00;101874.66;108537;1286;22119;-82
2024/01/21 02:32:27;;;;;;;30.60;22.10;;;;;;;1.49;100.00;101873.44;108476;1286;22046;-79
2024/01/21 02:34:59;;;;;;;32.90;23.00;;;;;;;1.47;100.00;101871.50;108434;1286;22021;-81
2024/01/21 02:37:31;;;;;;;35.30;24.30;;;;;;;1.46;100.00;101872.88;108378;1286;22757;-80
2024/01/21 02:40:09;;;;;;;41.80;25.70;;;;;;;1.45;100.00;101873.36;108555;1286;21999;-80
2024/01/21 02:42:42;;;;;;;29.90;21.60;;;;;;;1.43;100.00;101876.05;108223;1286;22023;-80
2024/01/21 02:45:18;;;;;;;31.20;21.20;;;;;;;1.38;100.00;101879.68;108499;1286;22282;-80
2024/01/21 02:47:54;;;;;;;24.00;18.60;;;;;;;1.31;100.00;101884.34;108552;1282;21999;-81
2024/01/21 02:50:25;;;;;;;25.80;19.00;;;;;;;1.28;100.00;101881.33;108642;1282;23076;-81
2024/01/21 02:52:57;;;;;;;25.60;18.40;;;;;;;1.27;100.00;101877.54;108760;1282;22094;-81
2024/01/21 02:55:29;;;;;;;27.00;19.40;;;;;;;1.27;100.00;101878.91;108734;1282;23101;-81
2024/01/21 02:58:03;;;;;;;21.00;17.10;;;;;;;1.28;100.00;101875.16;108760;1282;22036;-80
2024/01/21 03:00:38;;;;;;;23.70;18.30;;;;;;;1.31;100.00;101874.72;108745;1282;22345;-82
2024/01/21 03:03:10;;;;;;;29.00;17.30;;;;;;;1.34;100.00;101869.31;108783;1282;22046;-81
2024/01/21 03:05:42;;;;;;;23.50;17.90;;;;;;;1.37;100.00;101866.45;108767;1282;23074;-80
2024/01/21 03:08:16;;;;;;;24.50;19.10;;;;;;;1.36;100.00;101865.92;108735;1282;21995;-79
2024/01/21 03:10:50;;;;;;;25.50;19.60;;;;;;;1.38;100.00;101869.05;108749;1282;22004;-80
2024/01/21 03:13:21;;;;;;;27.70;18.50;;;;;;;1.41;100.00;101868.11;108793;1282;22014;-80
2024/01/21 03:15:50;;;;;;;21.70;16.80;;;;;;;1.37;100.00;101868.16;108368;1287;22015;-81
2024/01/21 03:18:20;;;;;;;22.70;17.90;;;;;;;1.32;100.00;101872.52;108379;1287;22009;-79
2024/01/21 03:20:53;;;;;;;23.70;18.60;;;;;;;1.29;100.00;101873.65;108380;1287;23056;-78
2024/01/21 03:23:29;;;;;;;29.10;19.20;;;;;;;1.27;100.00;101872.73;108203;1287;23764;-82
2024/01/21 03:26:00;;;;;;;22.90;16.80;;;;;;;1.27;100.00;101874.11;107130;1292;813707;-81
2024/01/21 03:28:34;;;;;;;21.50;16.70;;;;;;;1.21;100.00;101868.48;108052;1292;23007;-80
2024/01/21 03:31:09;;;;;;;26.20;17.10;;;;;;;1.27;100.00;101880.11;108046;1291;22792;-80
2024/01/21 03:33:43;;;;;;;23.00;17.90;;;;;;;1.27;100.00;101880.27;108094;1288;22018;-80
2024/01/21 03:36:13;;;;;;;24.80;16.70;;;;;;;1.30;100.00;101879.15;108414;1288;22466;-80
2024/01/21 03:38:44;;;;;;;24.00;17.40;;;;;;;1.32;100.00;101880.76;108102;1284;22039;-80
2024/01/21 03:41:14;;;;;;;;;;;;;;;1.32;100.00;101883.67;108012;1291;21989;-81
2024/01/21 03:43:44;;;;;;;26.80;18.10;;;;;;;1.26;100.00;101888.67;108238;1286;21994;-80
2024/01/21 03:46:14;;;;;;;26.30;18.00;;;;;;;1.29;100.00;101889.09;108448;1286;23152;-79
2024/01/21 03:48:43;;;;;;;22.20;18.20;;;;;;;1.33;100.00;101890.73;108441;1286;22020;-80
2024/01/21 03:51:13;;;;;;;26.00;19.60;;;;;;;1.35;100.00;101891.13;108308;1290;22080;-79
2024/01/21 03:53:46;;;;;;;24.10;19.80;;;;;;;1.36;100.00;101892.52;108104;1290;22014;-80
2024/01/21 03:56:23;;;;;;;29.20;20.20;;;;;;;1.36;100.00;101893.71;108352;1286;22026;-80
2024/01/21 03:58:55;;;;;;;26.20;20.10;;;;;;;1.35;100.00;101891.64;108385;1286;22016;-80
2024/01/21 04:01:27;;;;;;;23.80;19.60;;;;;;;1.34;100.00;101894.02;108304;1286;22112;-80
2024/01/21 04:03:57;;;;;;;30.50;21.10;;;;;;;1.35;100.00;101891.45;108719;1286;22028;-80
2024/01/21 04:06:32;;;;;;;22.60;18.30;;;;;;;1.35;100.00;101895.91;108535;1285;23644;-82
2024/01/21 04:09:07;;;;;;;26.10;19.00;;;;;;;1.34;100.00;101899.32;108567;1282;22232;-81
2024/01/21 04:11:39;;;;;;;25.10;19.30;;;;;;;1.32;100.00;101898.77;108737;1282;21884;-80
2024/01/21 04:14:09;;;;;;;28.90;19.20;;;;;;;1.35;100.00;101900.22;108770;1282;21992;-81
2024/01/21 04:16:41;;;;;;;30.10;20.20;;;;;;;1.38;100.00;101898.21;108361;1287;23810;-80
2024/01/21 04:19:12;;;;;;;28.50;19.80;;;;;;;1.37;100.00;101900.79;108418;1287;21989;-80
2024/01/21 04:21:43;;;;;;;28.80;18.60;;;;;;;1.38;100.00;101898.73;108139;1287;21973;-80
2024/01/21 04:24:12;;;;;;;29.30;20.50;;;;;;;1.35;100.00;101898.16;108452;1286;22426;-80
2024/01/21 04:26:48;;;;;;;25.80;18.80;;;;;;;1.33;100.00;101894.84;108449;1287;22010;-81
2024/01/21 04:29:17;;;;;;;22.50;17.70;;;;;;;1.30;100.00;101897.33;108462;1287;22827;-80
2024/01/21 04:31:49;;;;;;;;;;;;;;;1.30;100.00;101899.06;108491;1287;22019;-81
2024/01/21 04:34:18;;;;;;;23.70;19.10;;;;;;;1.23;100.00;101898.86;108501;1282;22010;-80
2024/01/21 04:36:49;;;;;;;23.50;19.00;;;;;;;1.24;100.00;101896.15;108447;1287;22014;-81
2024/01/21 04:39:21;;;;;;;28.70;20.20;;;;;;;1.26;100.00;101897.25;108421;1290;22375;-80
2024/01/21 04:41:53;;;;;;;22.00;18.20;;;;;;;1.21;100.00;101879.80;108385;1286;22311;-80
2024/01/21 04:44:21;;;;;;;29.40;17.50;;;;;;;1.31;100.00;101894.97;108122;1292;22829;-80
2024/01/21 04:46:51;;;;;;;25.30;18.00;;;;;;;1.32;100.00;101898.58;107895;1292;22069;-80
2024/01/21 04:49:23;;;;;;;19.40;17.20;;;;;;;1.31;100.00;101898.05;108093;1292;23107;-80
2024/01/21 04:51:54;;;;;;;27.10;22.10;;;;;;;1.34;100.00;101903.77;107618;1297;23077;-79
2024/01/21 04:54:24;;;;;;;23.70;19.90;;;;;;;1.32;100.00;101895.66;107592;1294;22011;-80
2024/01/21 04:56:55;;;;;;;31.80;24.80;;;;;;;1.28;100.00;101896.61;107870;1292;22069;-80
2024/01/21 04:59:27;;;;;;;32.80;25.40;;;;;;;1.25;100.00;101899.63;108049;1291;22719;-80
2024/01/21 05:01:57;;;;;;;30.70;24.70;;;;;;;1.26;100.00;101899.80;107943;1291;22069;-81
2024/01/21 05:04:41;;;;;;;27.70;22.80;;;;;;;1.28;100.00;101905.69;108154;1289;22764;-80
2024/01/21 05:07:18;;;;;;;31.20;25.70;;;;;;;1.27;100.00;101910.30;108098;1291;22056;-80
2024/01/21 05:09:48;;;;;;;60.10;44.10;;;;;;;1.23;100.00;101910.03;107651;1294;23028;-80
2024/01/21 05:12:21;;;;;;;33.40;27.40;;;;;;;1.23;100.00;101910.53;107890;1294;23081;-79
2024/01/21 05:14:56;;;;;;;38.80;34.20;;;;;;;1.24;100.00;101914.85;108039;1291;22133;-80
2024/01/21 05:17:27;;;;;;;43.70;37.40;;;;;;;1.24;100.00;101914.86;108226;1291;22013;-81
2024/01/21 05:20:00;;;;;;;29.80;22.40;;;;;;;1.25;100.00;101908.20;108076;1282;22005;-81
2024/01/21 05:22:29;;;;;;;32.30;26.00;;;;;;;1.24;100.00;101905.58;108420;1287;23730;-81
2024/01/21 05:24:59;;;;;;;21.70;17.00;;;;;;;1.22;100.00;101901.25;108466;1287;23106;-79
2024/01/21 05:27:34;;;;;;;26.00;21.10;;;;;;;1.23;100.00;101897.49;108162;1287;21993;-81
2024/01/21 05:30:24;;;;;;;26.60;20.30;;;;;;;1.19;100.00;101893.29;108423;1286;22008;-81
2024/01/21 05:32:54;;;;;;;28.20;20.20;;;;;;;1.16;100.00;101895.09;108375;1287;22049;-80
2024/01/21 05:35:28;;;;;;;64.40;43.30;;;;;;;1.13;100.00;101897.25;108155;1290;23814;-80
2024/01/21 05:37:58;;;;;;;51.50;37.20;;;;;;;1.13;100.00;101893.30;108101;1291;24096;-80
2024/01/21 05:40:35;;;;;;;55.40;45.00;;;;;;;1.11;100.00;101894.27;107493;1298;22033;-80
2024/01/21 05:43:04;;;;;;;130.00;79.50;;;;;;;1.06;100.00;101900.66;107330;1302;23117;-79
2024/01/21 05:45:51;;;;;;;51.20;36.70;;;;;;;0.98;100.00;101903.91;106882;1304;22026;-82
2024/01/21 05:48:30;;;;;;;95.90;73.30;;;;;;;0.93;100.00;101908.38;107135;1304;22040;-81
2024/01/21 05:51:03;;;;;;;56.90;41.30;;;;;;;0.89;100.00;101907.59;106824;1307;22022;-80
2024/01/21 05:53:42;;;;;;;35.90;26.60;;;;;;;0.89;100.00;101906.59;106560;1307;23653;-80
2024/01/21 05:56:18;;;;;;;40.40;34.00;;;;;;;0.89;100.00;101906.56;106872;1303;23220;-82
2024/01/21 05:58:51;;;;;;;26.30;21.80;;;;;;;0.86;100.00;101909.23;107170;1298;22033;-80
2024/01/21 06:01:28;;;;;;;24.70;19.60;;;;;;;0.83;100.00;101910.86;107731;1292;22085;-81
2024/01/21 06:04:03;;;;;;;29.20;19.40;;;;;;;0.82;100.00;101920.08;107863;1291;22057;-80
2024/01/21 06:06:40;;;;;;;36.10;23.90;;;;;;;0.81;100.00;101919.72;107960;1294;22025;-81
2024/01/21 06:09:17;;;;;;;27.00;17.00;;;;;;;0.80;100.00;101918.84;108225;1289;22001;-80
2024/01/21 06:11:56;;;;;;;25.20;18.50;;;;;;;0.76;100.00;101921.31;108444;1287;22468;-80
2024/01/21 06:14:31;;;;;;;24.20;17.20;;;;;;;0.74;100.00;101920.21;108388;1289;22052;-81
2024/01/21 06:17:03;;;;;;;47.20;28.30;;;;;;;0.74;100.00;101918.32;108384;1289;21993;-80
2024/01/21 06:19:32;;;;;;;88.40;53.00;;;;;;;0.73;100.00;101920.70;108372;1289;22468;-80
2024/01/21 06:22:17;;;;;;;50.00;33.40;;;;;;;0.68;100.00;101925.71;108557;1285;23020;-81
2024/01/21 06:24:52;;;;;;;52.70;37.10;;;;;;;0.61;100.00;101926.04;108399;1287;22015;-81
2024/01/21 06:27:30;;;;;;;62.70;49.10;;;;;;;0.52;100.00;101932.98;108529;1286;23061;-80
2024/01/21 06:30:21;;;;;;;32.30;22.70;;;;;;;0.46;100.00;101936.05;108332;1288;23756;-81
2024/01/21 06:32:58;;;;;;;29.50;17.90;;;;;;;0.38;100.00;101936.14;108151;1290;23069;-82
2024/01/21 06:35:49;;;;;;;26.60;19.60;;;;;;;0.28;100.00;101940.14;108125;1291;22743;-79
2024/01/21 06:41:26;;;;;;;28.50;17.50;;;;;;;0.20;100.00;101944.02;107934;1295;22032;-81
2024/01/21 06:44:06;;;;;;;41.50;28.20;;;;;;;0.19;100.00;101949.80;108142;1291;22023;-82
2024/01/21 06:46:49;;;;;;;24.50;17.60;;;;;;;0.18;100.00;101949.44;108126;1288;22034;-81
2024/01/21 06:49:47;;;;;;;28.90;19.30;;;;;;;0.11;100.00;101952.45;107890;1294;22027;-80
2024/01/21 06:52:40;;;;;;;27.00;19.80;;;;;;;0.01;100.00;101954.06;108103;1292;22040;-80
2024/01/21 06:55:27;;;;;;;24.20;18.20;;;;;;;-0.01;100.00;101959.80;108153;1291;22009;-81
2024/01/21 06:58:03;;;;;;;25.30;19.70;;;;;;;-0.02;100.00;101964.58;108511;1287;23787;-81
2024/01/21 07:00:40;;;;;;;18.70;15.90;;;;;;;-0.00;100.00;101964.10;108441;1287;23769;-81
2024/01/21 07:03:32;;;;;;;35.50;26.90;;;;;;;0.00;100.00;101963.95;108432;1287;23762;-81
2024/01/21 07:06:07;;;;;;;26.90;22.60;;;;;;;0.03;100.00;101970.88;108396;1287;23018;-81
2024/01/21 07:08:45;;;;;;;28.70;22.30;;;;;;;0.08;100.00;101968.83;108661;1282;23034;-88
2024/01/21 07:11:35;;;;;;;31.20;22.20;;;;;;;0.12;100.00;101968.60;108714;1282;22010;-79
2024/01/21 07:14:22;;;;;;;28.50;21.70;;;;;;;0.15;100.00;101972.11;108157;1287;22941;-78
2024/01/21 07:16:51;;;;;;;23.50;18.50;;;;;;;0.19;100.00;101971.39;107812;1285;22022;-79
2024/01/21 07:19:27;;;;;;;29.00;22.40;;;;;;;0.19;100.00;101967.79;107773;1292;22055;-80
2024/01/21 07:22:07;;;;;;;25.40;22.30;;;;;;;0.20;100.00;101968.49;108063;1291;21989;-80
2024/01/21 07:24:40;;;;;;;30.60;23.60;;;;;;;0.24;100.00;101966.92;108000;1292;22009;-78
2024/01/21 07:27:20;;;;;;;31.00;20.20;;;;;;;0.28;100.00;101963.93;107482;1298;22011;-79
2024/01/21 07:29:54;;;;;;;29.40;20.40;;;;;;;0.26;100.00;101963.70;107352;1298;22015;-80
2024/01/21 07:32:32;;;;;;;28.20;22.80;;;;;;;0.24;100.00;101962.45;107578;1294;22061;-78
2024/01/21 07:35:20;;;;;;;30.80;20.90;;;;;;;0.24;100.00;101966.91;107773;1289;22027;-78
2024/01/21 07:37:58;;;;;;;41.10;28.40;;;;;;;0.23;100.00;101968.23;107897;1292;23753;-79
2024/01/21 07:40:36;;;;;;;38.60;27.10;;;;;;;0.24;100.00;101971.69;107901;1292;22006;-79
2024/01/21 07:43:15;;;;;;;49.80;33.70;;;;;;;0.27;100.00;101970.23;107832;1292;22535;-78
2024/01/21 07:45:51;;;;;;;67.00;35.60;;;;;;;0.30;100.00;101977.52;108299;1286;22540;-79
2024/01/21 07:48:26;;;;;;;40.30;29.50;;;;;;;0.32;100.00;101975.88;108415;1285;22000;-78
2024/01/21 07:51:12;;;;;;;38.40;27.70;;;;;;;0.33;100.00;101980.03;107908;1292;23027;-78
2024/01/21 07:53:55;;;;;;;35.80;26.70;;;;;;;0.33;100.00;101980.18;107949;1295;22034;-79
2024/01/21 07:56:28;;;;;;;39.00;25.90;;;;;;;0.32;100.00;101978.11;107804;1292;22003;-78
2024/01/21 07:58:57;;;;;;;43.30;27.90;;;;;;;0.32;100.00;101978.45;107601;1292;22007;-77
2024/01/21 08:01:29;;;;;;;42.40;30.50;;;;;;;0.33;100.00;101976.95;107756;1292;23783;-78
2024/01/21 08:04:09;;;;;;;52.20;34.80;;;;;;;0.32;100.00;101974.52;107904;1288;22057;-78
2024/01/21 08:06:43;;;;;;;42.20;32.00;;;;;;;0.33;100.00;101970.10;107801;1291;21634;-78
2024/01/21 08:09:20;;;;;;;38.90;28.40;;;;;;;0.33;100.00;101962.73;107829;1292;22260;-79
2024/01/21 08:11:54;;;;;;;35.00;28.90;;;;;;;0.34;100.00;101959.34;108052;1289;22025;-78
2024/01/21 08:14:25;;;;;;;33.70;27.70;;;;;;;0.37;100.00;101955.64;108419;1289;22416;-81
2024/01/21 08:17:04;;;;;;;39.80;26.90;;;;;;;0.38;100.00;101949.52;108515;1288;23115;-86
2024/01/21 08:19:38;;;;;;;38.40;26.90;;;;;;;0.41;100.00;101944.63;108475;1288;22774;-85
2024/01/21 08:22:18;;;;;;;;;;;;;;;0.45;100.00;101950.90;108529;1283;22772;-84
2024/01/21 08:24:57;;;;;;;35.80;24.10;;;;;;;0.38;100.00;101953.45;108276;1291;22018;-86
2024/01/21 08:27:28;;;;;;;31.00;25.00;;;;;;;0.40;100.00;101956.42;108171;1291;23059;-85
2024/01/21 08:30:04;;;;;;;55.40;38.80;;;;;;;0.46;100.00;101955.90;107814;1296;23644;-81
2024/01/21 08:32:33;;;;;;;51.30;35.80;;;;;;;0.54;100.00;101955.66;107767;1294;22027;-82
2024/01/21 08:35:07;;;;;;;68.40;50.00;;;;;;;0.63;100.00;101954.34;107700;1292;22188;-86
2024/01/21 08:37:41;;;;;;;43.70;31.30;;;;;;;0.72;100.00;101956.98;107996;1291;22018;-84
2024/01/21 08:40:15;;;;;;;38.70;28.90;;;;;;;0.83;100.00;101956.63;108163;1292;22031;-87
2024/01/21 08:42:44;;;;;;;44.60;30.90;;;;;;;0.91;100.00;101947.08;108227;1287;22027;-85
2024/01/21 08:45:14;;;;;;;44.70;30.50;;;;;;;1.07;100.00;101961.23;108583;1287;23624;-84
2024/01/21 08:47:45;;;;;;;42.10;29.30;;;;;;;1.15;100.00;101956.81;108538;1286;22400;-84
2024/01/21 08:50:17;;;;;;;43.40;29.50;;;;;;;1.20;100.00;101953.32;108621;1286;22020;-84
2024/01/21 08:52:46;;;;;;;44.40;29.60;;;;;;;1.23;100.00;101952.89;108518;1286;22377;-85
2024/01/21 08:55:17;;;;;;;52.10;32.00;;;;;;;1.29;100.00;101953.05;108625;1286;22000;-87
2024/01/21 08:57:48;;;;;;;47.70;34.80;;;;;;;1.36;100.00;101949.63;108580;1286;22016;-87
2024/01/21 09:00:23;;;;;;;40.20;29.00;;;;;;;1.44;100.00;101951.04;108677;1286;21999;-84
2024/01/21 09:03:03;;;;;;;57.10;41.50;;;;;;;1.51;100.00;101950.19;108525;1286;22013;-82
2024/01/21 09:05:35;;;;;;;43.70;31.90;;;;;;;1.59;100.00;101934.25;108570;1282;21996;-83
2024/01/21 09:08:12;;;;;;;47.70;34.90;;;;;;;1.80;100.00;101941.80;108635;1282;22020;-83
2024/01/21 09:10:45;;;;;;;40.80;29.50;;;;;;;1.92;100.00;101941.08;108835;1282;21985;-82
2024/01/21 09:13:29;;;;;;;39.10;27.40;;;;;;;2.06;100.00;101939.15;108503;1286;23651;-83
2024/01/21 09:16:09;;;;;;;57.90;42.30;;;;;;;2.23;100.00;101938.14;108420;1290;23640;-83
2024/01/21 09:18:38;;;;;;;33.20;25.10;;;;;;;2.37;100.00;101939.29;108346;1290;23671;-83
2024/01/21 09:21:08;;;;;;;39.10;27.20;;;;;;;2.46;100.00;101945.48;108452;1286;22024;-82
2024/01/21 09:24:03;;;;;;;42.40;28.10;;;;;;;2.56;100.00;101943.30;108456;1277;22034;-83
2024/01/21 09:26:39;;;;;;;42.40;29.40;;;;;;;2.65;100.00;101942.09;108345;1290;22076;-84
2024/01/21 09:29:10;;;;;;;33.90;27.00;;;;;;;2.70;100.00;101939.45;108510;1286;22007;-82
2024/01/21 09:31:42;;;;;;;37.70;29.70;;;;;;;2.75;100.00;101934.55;108462;1286;22007;-83
2024/01/21 09:34:18;;;;;;;43.00;30.40;;;;;;;2.80;100.00;101935.36;108615;1282;22097;-82
2024/01/21 09:36:51;;;;;;;47.90;34.30;;;;;;;2.86;100.00;101927.92;108878;1282;21996;-83
2024/01/21 09:39:28;;;;;;;47.30;33.80;;;;;;;2.97;100.00;101920.36;108494;1288;23635;-85
2024/01/21 09:42:05;;;;;;;34.90;26.00;;;;;;;3.09;100.00;101919.92;108299;1292;22028;-85
2024/01/21 09:44:41;;;;;;;44.70;30.70;;;;;;;3.24;100.00;101914.84;107978;1291;22065;-83
2024/01/21 09:47:16;;;;;;;43.10;29.10;;;;;;;3.39;100.00;101913.89;108129;1291;23687;-86
2024/01/21 09:49:54;;;;;;;31.20;23.30;;;;;;;3.42;100.00;101916.70;108124;1292;22008;-84
2024/01/21 09:52:29;;;;;;;40.70;30.10;;;;;;;3.46;100.00;101921.58;108129;1291;22024;-85
2024/01/21 09:55:04;;;;;;;37.90;28.50;;;;;;;3.50;100.00;101920.27;108376;1291;22065;-86
2024/01/21 09:57:40;;;;;;;47.40;33.90;;;;;;;3.58;100.00;101921.77;108180;1291;22117;-85
2024/01/21 10:00:20;;;;;;;37.60;26.20;;;;;;;3.67;100.00;101920.71;108129;1291;22018;-83
2024/01/21 10:02:50;;;;;;;31.00;24.00;;;;;;;3.76;100.00;101915.34;108295;1291;22756;-84
2024/01/21 10:05:23;;;;;;;39.10;29.00;;;;;;;3.82;100.00;101915.60;108664;1286;22023;-83
2024/01/21 10:07:57;;;;;;;37.80;28.90;;;;;;;3.85;100.00;101913.05;108678;1286;22365;-85
2024/01/21 10:10:32;;;;;;;34.40;26.40;;;;;;;3.91;100.00;101907.27;108692;1285;22142;-85
2024/01/21 10:13:07;;;;;;;40.40;30.00;;;;;;;4.01;100.00;101906.40;108452;1278;22009;-83
2024/01/21 10:15:44;;;;;;;35.00;25.00;;;;;;;4.08;100.00;101903.08;108511;1290;22276;-87
2024/01/21 10:18:22;;;;;;;34.50;25.20;;;;;;;4.16;100.00;101904.53;108503;1290;22088;-84
2024/01/21 10:21:09;;;;;;;37.80;29.90;;;;;;;4.24;100.00;101904.48;108668;1288;22026;-85
2024/01/21 10:23:49;;;;;;;39.10;31.50;;;;;;;4.37;100.00;101904.98;108092;1294;22032;-86
2024/01/21 10:26:22;;;;;;;46.80;35.90;;;;;;;4.43;100.00;101901.10;108250;1291;22018;-85
2024/01/21 10:29:18;;;;;;;41.40;31.70;;;;;;;4.50;100.00;101893.59;107706;1299;22202;-86
2024/01/21 10:31:58;;;;;;;37.60;26.70;;;;;;;4.56;100.00;101888.50;107938;1294;22005;-84
2024/01/21 10:34:56;;;;;;;41.80;29.50;;;;;;;4.65;100.00;101883.09;108288;1294;23066;-87
2024/01/21 10:37:55;;;;;;;44.80;31.00;;;;;;;4.72;100.00;101874.17;107710;1299;22035;-87
2024/01/21 10:40:25;;;;;;;42.00;30.40;;;;;;;4.79;100.00;101868.57;107567;1299;23237;-84
2024/01/21 10:43:09;;;;;;;31.90;26.50;;;;;;;4.83;100.00;101862.75;108071;1291;23061;-86
2024/01/21 10:45:51;;;;;;;40.30;31.90;;;;;;;4.81;100.00;101862.91;107890;1293;23744;-85
2024/01/21 10:48:33;;;;;;;35.80;27.10;;;;;;;4.89;100.00;101856.93;107734;1294;22204;-83
2024/01/21 10:51:20;;;;;;;31.30;24.60;;;;;;;4.95;100.00;101855.63;107586;1298;23663;-86
2024/01/21 10:54:08;;;;;;;59.90;43.20;;;;;;;5.01;100.00;101853.44;107738;1298;22009;-86
2024/01/21 10:56:42;;;;;;;46.80;33.20;;;;;;;5.14;100.00;101853.20;107830;1295;23744;-85
2024/01/21 10:59:12;;;;;;;35.00;26.90;;;;;;;5.20;100.00;101854.29;107589;1299;21988;-85
2024/01/21 11:01:45;;;;;;;39.10;27.60;;;;;;;5.24;100.00;101849.31;107560;1299;22023;-85
2024/01/21 11:04:37;;;;;;;39.20;29.90;;;;;;;5.25;100.00;101853.63;107418;1300;23765;-85
2024/01/21 11:07:19;;;;;;;35.10;24.60;;;;;;;5.20;100.00;101845.13;107587;1296;22084;-80
2024/01/21 11:09:55;;;;;;;35.60;26.50;;;;;;;5.14;100.00;101838.36;107880;1292;22018;-81
2024/01/21 11:12:35;;;;;;;34.40;23.10;;;;;;;5.06;100.00;101841.23;107788;1295;22073;-80
2024/01/21 11:15:29;;;;;;;37.00;23.30;;;;;;;4.97;100.00;101839.42;107768;1293;22039;-80
2024/01/21 11:18:23;;;;;;;27.70;19.20;;;;;;;4.89;100.00;101837.45;107507;1289;22482;-79
2024/01/21 11:21:12;;;;;;;19.90;12.60;;;;;;;4.79;100.00;101839.76;107574;1298;23767;-81
2024/01/21 11:24:04;;;;;;;38.50;29.20;;;;;;;4.72;100.00;101842.81;107728;1292;22795;-79
2024/01/21 11:26:41;;;;;;;30.70;22.40;;;;;;;4.66;100.00;101844.98;107499;1298;22443;-82
2024/01/21 11:29:39;;;;;;;33.00;23.30;;;;;;;4.61;100.00;101840.42;107444;1298;22009;-80
2024/01/21 11:32:11;;;;;;;33.00;24.00;;;;;;;4.61;100.00;101828.73;107639;1295;24912;-78
2024/01/21 11:34:47;;;;;;;35.10;23.90;;;;;;;4.60;100.00;101826.48;107373;1299;22012;-80
2024/01/21 11:37:22;;;;;;;30.80;22.20;;;;;;;4.58;100.00;101823.68;107367;1299;23061;-80
2024/01/21 11:40:06;;;;;;;31.30;22.30;;;;;;;4.53;100.00;101825.88;107500;1298;22030;-82